createdAt,value
2019-03-23T00:00:10.291Z,8.08
2019-03-23T00:05:09.005Z,8.00
2019-03-23T00:10:07.091Z,8.15
2019-03-23T00:15:10.099Z,8.03
2019-03-23T00:20:07.575Z,7.97
2019-03-23T00:25:05.121Z,7.79
2019-03-23T00:30:05.106Z,8.02
2019-03-23T00:35:02.691Z,7.92
2019-03-23T00:39:59.872Z,7.96
2019-03-23T00:44:56.851Z,7.90
2019-03-23T00:49:53.800Z,7.51
2019-03-23T00:54:50.908Z,7.44
2019-03-23T00:59:47.896Z,7.21
2019-03-23T01:04:44.935Z,7.42
2019-03-23T01:09:41.950Z,7.28
2019-03-23T01:14:39.025Z,7.09
2019-03-23T01:19:35.961Z,6.71
2019-03-23T01:24:32.933Z,6.93
2019-03-23T01:29:29.884Z,6.80
2019-03-23T01:34:26.895Z,6.73
2019-03-23T01:39:23.936Z,6.80
2019-03-23T01:44:20.933Z,6.64
2019-03-23T01:49:18.071Z,6.64
2019-03-23T01:54:15.168Z,6.69
2019-03-23T01:59:12.124Z,6.60
2019-03-23T02:04:09.588Z,6.63
2019-03-23T02:09:07.250Z,6.49
2019-03-23T02:14:04.289Z,6.20
2019-03-23T02:19:01.243Z,6.20
2019-03-23T02:23:58.309Z,5.96
2019-03-23T02:28:55.354Z,5.61
2019-03-23T02:33:52.552Z,5.54
2019-03-23T02:38:49.537Z,5.54
2019-03-23T02:43:46.654Z,5.32
2019-03-23T02:48:43.914Z,5.42
2019-03-23T02:53:41.018Z,5.43
2019-03-23T02:58:38.074Z,5.41
2019-03-23T03:03:35.076Z,5.38
2019-03-23T03:08:32.113Z,5.51
2019-03-23T03:13:29.196Z,5.52
2019-03-23T03:18:26.217Z,5.55
2019-03-23T03:23:23.271Z,5.59
2019-03-23T03:28:22.031Z,5.65
2019-03-23T03:33:19.139Z,5.63
2019-03-23T03:38:16.187Z,5.65
2019-03-23T03:43:13.295Z,5.60
2019-03-23T03:48:10.357Z,5.60
2019-03-23T03:53:07.433Z,5.40
2019-03-23T03:58:04.375Z,5.43
2019-03-23T04:03:01.407Z,5.41
2019-03-23T04:08:10.524Z,5.48
2019-03-23T04:12:57.431Z,5.44
2019-03-23T04:17:54.596Z,5.39
2019-03-23T04:22:52.629Z,5.36
2019-03-23T04:27:50.952Z,5.39
2019-03-23T04:32:48.058Z,5.41
2019-03-23T04:37:45.094Z,5.28
2019-03-23T04:42:42.195Z,5.28
2019-03-23T04:47:39.164Z,5.28
2019-03-23T04:52:36.276Z,5.12
2019-03-23T04:57:33.328Z,5.08
2019-03-23T05:02:30.284Z,5.15
2019-03-23T05:07:27.245Z,5.04
2019-03-23T05:12:24.329Z,5.19
2019-03-23T05:17:21.354Z,5.12
2019-03-23T05:22:18.326Z,5.18
2019-03-23T05:27:16.142Z,5.27
2019-03-23T05:32:13.367Z,5.23
2019-03-23T05:37:10.305Z,5.24
2019-03-23T05:42:07.284Z,5.39
2019-03-23T05:47:04.244Z,5.47
2019-03-23T05:52:01.597Z,5.48
2019-03-23T05:56:58.727Z,5.47
2019-03-23T06:01:55.786Z,5.70
2019-03-23T06:06:52.851Z,5.93
2019-03-23T06:11:50.197Z,6.02
2019-03-23T06:16:47.223Z,6.15
2019-03-23T06:21:44.231Z,6.45
2019-03-23T06:26:41.275Z,6.35
2019-03-23T06:31:38.418Z,6.76
2019-03-23T06:36:35.404Z,6.53
2019-03-23T06:41:32.539Z,6.43
2019-03-23T06:46:29.542Z,6.86
2019-03-23T06:51:26.766Z,6.87
2019-03-23T06:56:26.736Z,7.40
2019-03-23T07:01:23.815Z,7.93
2019-03-23T07:06:21.702Z,8.39
2019-03-23T07:11:20.415Z,9.31
2019-03-23T07:16:17.390Z,9.47
2019-03-23T07:21:14.499Z,9.50
2019-03-23T07:26:11.563Z,10.18
2019-03-23T07:31:08.819Z,10.56
2019-03-23T07:36:05.947Z,10.45
2019-03-23T07:41:03.599Z,10.41
2019-03-23T07:46:00.613Z,10.14
2019-03-23T07:50:57.707Z,9.98
2019-03-23T07:55:54.664Z,10.52
2019-03-23T08:00:51.767Z,11.01
2019-03-23T08:05:48.830Z,11.36
2019-03-23T08:10:45.904Z,11.90
2019-03-23T08:15:42.966Z,12.46
2019-03-23T08:20:41.630Z,13.08
2019-03-23T08:25:38.711Z,14.09
2019-03-23T08:30:35.776Z,14.44
2019-03-23T08:35:32.852Z,14.77
2019-03-23T08:40:30.793Z,15.87
2019-03-23T08:45:27.846Z,16.00
2019-03-23T08:50:24.918Z,16.45
2019-03-23T08:55:22.112Z,16.36
2019-03-23T09:00:19.268Z,16.71
2019-03-23T09:05:16.283Z,16.73
2019-03-23T09:10:13.846Z,17.33
2019-03-23T09:15:10.957Z,17.80
2019-03-23T09:20:11.204Z,17.39
2019-03-23T09:25:08.234Z,16.97
2019-03-23T09:30:09.426Z,17.40
2019-03-23T09:35:06.694Z,18.13
2019-03-23T09:40:10.870Z,18.41
2019-03-23T09:45:07.018Z,18.00
2019-03-23T09:50:08.223Z,18.99
2019-03-23T09:55:07.215Z,19.38
2019-03-23T10:00:10.806Z,19.82
2019-03-23T10:05:07.863Z,19.73
2019-03-23T10:10:06.072Z,19.42
2019-03-23T10:15:05.739Z,19.81
2019-03-23T10:20:05.632Z,20.35
2019-03-23T10:25:06.918Z,19.51
2019-03-23T10:30:06.927Z,19.44
2019-03-23T10:35:06.578Z,20.22
2019-03-23T10:40:08.728Z,19.50
2019-03-23T10:45:07.327Z,19.88
2019-03-23T10:50:05.268Z,20.39
2019-03-23T10:55:04.835Z,20.85
2019-03-23T11:00:04.843Z,20.36
2019-03-23T11:05:02.308Z,20.46
2019-03-23T11:09:59.494Z,21.02
2019-03-23T11:14:56.597Z,21.02
2019-03-23T11:19:53.663Z,20.10
2019-03-23T11:24:50.624Z,20.79
2019-03-23T11:29:47.638Z,20.94
2019-03-23T11:34:44.652Z,20.16
2019-03-23T11:39:41.674Z,20.54
2019-03-23T11:44:38.744Z,19.85
2019-03-23T11:49:38.361Z,20.39
2019-03-23T11:54:35.338Z,20.34
2019-03-23T11:59:32.424Z,19.88
2019-03-23T12:04:29.421Z,20.20
2019-03-23T12:09:33.481Z,20.01
2019-03-23T12:14:30.537Z,18.43
2019-03-23T12:19:28.007Z,18.43
2019-03-23T12:24:25.125Z,19.52
2019-03-23T12:29:23.308Z,19.51
2019-03-23T12:34:20.314Z,17.89
2019-03-23T12:39:17.407Z,18.60
2019-03-23T12:44:14.651Z,19.43
2019-03-23T12:49:12.132Z,19.56
2019-03-23T12:54:09.755Z,19.31
2019-03-23T12:59:06.867Z,20.01
2019-03-23T13:04:03.920Z,20.13
2019-03-23T13:09:01.028Z,20.15
2019-03-23T13:13:58.088Z,20.41
2019-03-23T13:18:55.129Z,20.09
2019-03-23T13:23:52.148Z,19.33
2019-03-23T13:28:49.203Z,19.84
2019-03-23T13:33:46.232Z,19.87
2019-03-23T13:38:44.533Z,19.62
2019-03-23T13:43:43.699Z,19.69
2019-03-23T13:48:40.703Z,19.52
2019-03-23T13:53:37.834Z,19.66
2019-03-23T13:58:35.151Z,19.34
2019-03-23T14:03:32.161Z,19.76
2019-03-23T14:08:32.290Z,19.19
2019-03-23T14:13:29.394Z,18.80
2019-03-23T14:18:26.565Z,18.95
2019-03-23T14:23:23.608Z,18.84
2019-03-23T14:28:20.648Z,18.69
2019-03-23T14:33:17.681Z,18.61
2019-03-23T14:38:15.159Z,18.44
2019-03-23T14:43:12.266Z,18.31
2019-03-23T14:48:09.359Z,18.61
2019-03-23T14:53:06.394Z,18.57
2019-03-23T14:58:03.624Z,18.41
2019-03-23T15:03:00.705Z,17.95
2019-03-23T15:07:57.794Z,17.85
2019-03-23T15:12:54.859Z,17.58
2019-03-23T15:17:51.874Z,17.56
2019-03-23T15:22:49.254Z,17.37
2019-03-23T15:27:46.331Z,17.10
2019-03-23T15:32:43.382Z,16.97
2019-03-23T15:37:40.404Z,16.88
2019-03-23T15:42:37.361Z,16.88
2019-03-23T15:47:34.366Z,16.67
2019-03-23T15:52:31.427Z,16.60
2019-03-23T15:57:28.455Z,16.50
2019-03-23T16:02:25.559Z,16.23
2019-03-23T16:07:29.421Z,16.08
2019-03-23T16:12:22.351Z,15.87
2019-03-23T16:17:19.470Z,15.36
2019-03-23T16:22:16.509Z,14.69
2019-03-23T16:27:14.324Z,14.17
2019-03-23T16:32:11.286Z,13.97
2019-03-23T16:37:08.388Z,13.69
2019-03-23T16:42:05.577Z,13.28
2019-03-23T16:47:02.672Z,13.01
2019-03-23T16:51:59.716Z,12.73
2019-03-23T16:56:57.665Z,12.29
2019-03-23T17:01:54.728Z,11.84
2019-03-23T17:06:51.781Z,11.78
2019-03-23T17:11:52.793Z,11.23
2019-03-23T17:16:50.004Z,11.04
2019-03-23T17:21:47.056Z,10.78
2019-03-23T17:26:44.023Z,10.20
2019-03-23T17:31:41.075Z,9.97
2019-03-23T17:36:39.690Z,9.84
2019-03-23T17:41:36.647Z,9.73
2019-03-23T17:46:33.747Z,9.39
2019-03-23T17:51:30.824Z,9.39
2019-03-23T17:56:27.876Z,9.13
2019-03-23T18:01:24.831Z,8.85
2019-03-23T18:06:21.807Z,8.81
2019-03-23T18:11:18.809Z,8.64
2019-03-23T18:16:16.236Z,8.68
2019-03-23T18:21:13.265Z,8.50
2019-03-23T18:26:10.900Z,8.40
2019-03-23T18:31:07.873Z,8.10
2019-03-23T18:36:04.953Z,8.19
2019-03-23T18:41:01.993Z,7.97
2019-03-23T18:45:58.995Z,7.71
2019-03-23T18:50:56.225Z,7.58
2019-03-23T18:55:53.387Z,7.64
2019-03-23T19:00:50.396Z,7.28
2019-03-23T19:05:47.401Z,7.28
2019-03-23T19:10:45.352Z,7.10
2019-03-23T19:15:42.382Z,7.02
2019-03-23T19:20:39.423Z,6.90
2019-03-23T19:25:36.804Z,6.81
2019-03-23T19:30:33.889Z,6.75
2019-03-23T19:35:31.073Z,6.61
2019-03-23T19:40:28.101Z,6.62
2019-03-23T19:45:25.148Z,6.63
2019-03-23T19:50:22.091Z,6.54
2019-03-23T19:55:19.213Z,6.48
2019-03-23T20:00:19.539Z,6.45
2019-03-23T20:05:16.621Z,6.28
2019-03-23T20:10:14.380Z,6.14
2019-03-23T20:15:11.644Z,6.03
2019-03-23T20:20:09.608Z,5.98
2019-03-23T20:25:07.257Z,5.92
2019-03-23T20:30:10.165Z,5.98
2019-03-23T20:35:08.081Z,5.78
2019-03-23T20:40:06.077Z,5.63
2019-03-23T20:45:06.673Z,5.70
2019-03-23T20:50:06.515Z,5.61
2019-03-23T20:55:08.081Z,5.69
2019-03-23T21:00:06.619Z,5.64
2019-03-23T21:05:04.924Z,5.46
2019-03-23T21:10:01.877Z,5.44
2019-03-23T21:14:59.107Z,5.25
2019-03-23T21:19:56.089Z,5.13
2019-03-23T21:24:53.158Z,5.01
2019-03-23T21:29:50.192Z,4.91
2019-03-23T21:34:48.661Z,4.99
2019-03-23T21:39:45.666Z,4.83
2019-03-23T21:44:44.782Z,4.67
2019-03-23T21:49:41.822Z,4.71
2019-03-23T21:54:39.261Z,4.63
2019-03-23T21:59:36.227Z,4.65
2019-03-23T22:04:33.254Z,4.65
2019-03-23T22:09:30.248Z,4.68
2019-03-23T22:14:27.738Z,4.77
2019-03-23T22:19:24.782Z,4.74
2019-03-23T22:24:21.781Z,4.78
2019-03-23T22:29:18.712Z,4.71
2019-03-23T22:34:16.595Z,4.68
2019-03-23T22:39:13.739Z,4.44
2019-03-23T22:44:10.710Z,4.38
2019-03-23T22:49:07.682Z,4.49
2019-03-23T22:54:05.152Z,4.02
2019-03-23T22:59:02.120Z,4.05
2019-03-23T23:03:59.202Z,4.21
2019-03-23T23:08:56.242Z,4.33
2019-03-23T23:13:53.272Z,4.54
2019-03-23T23:18:50.199Z,4.52
2019-03-23T23:23:47.183Z,4.54
2019-03-23T23:28:44.661Z,4.39
2019-03-23T23:33:41.639Z,4.36
2019-03-23T23:38:38.642Z,4.22
2019-03-23T23:43:35.637Z,4.22
2019-03-23T23:48:32.689Z,3.95
2019-03-23T23:53:29.754Z,4.03
2019-03-23T23:58:26.808Z,4.03
